Time;durP1;ratioP1;P1;durP2;ratioP2;P2;SDS_P1;SDS_P2;PMS_P1;PMS_P2;Temp;Humidity;BMP_temperature;BMP_pressure;BME280_temperature;BME280_humidity;BME280_pressure;Samples;Min_cycle;Max_cycle;Signal;HPM_P1;HPM_P2
2022/09/28 00:01:53;;;;;;;12.30;8.40;;;;;;;;;;5075577;28;20048;-62
2022/09/28 00:04:19;;;;;;;15.30;9.95;;;;;;;;;;5075527;28;20032;-62
2022/09/28 00:06:49;;;;;;;15.57;9.43;;;;;;;;;;5075331;28;20456;-63
2022/09/28 00:09:15;;;;;;;13.27;8.35;;;;;;;;;;5074946;28;20048;-63
2022/09/28 00:11:45;;;;;;;19.73;9.90;;;;;;;;;;5056890;28;20040;-63
2022/09/28 00:14:12;;;;;;;16.23;9.70;;;;;;;;;;5040990;28;20044;-62
2022/09/28 00:16:39;;;;;;;20.50;10.82;;;;;;;;;;5075306;28;20146;-63
2022/09/28 00:19:07;;;;;;;16.48;10.70;;;;;;;;;;5075509;28;20033;-62
2022/09/28 00:21:34;;;;;;;18.42;9.88;;;;;;;;;;5075210;28;20067;-63
2022/09/28 00:24:14;;;;;;;20.55;10.15;;;;;;;;;;5069647;28;20040;-62
2022/09/28 00:26:53;;;;;;;16.00;9.13;;;;;;;;;;5057369;28;20053;-62
2022/09/28 00:29:27;;;;;;;16.15;10.25;;;;;;;;;;5075051;28;20067;-62
2022/09/28 00:32:01;;;;;;;20.23;11.05;;;;;;;;;;5075703;28;20385;-62
2022/09/28 00:34:30;;;;;;;20.23;11.35;;;;;;;;;;5075144;28;20040;-63
2022/09/28 00:36:57;;;;;;;18.45;11.13;;;;;;;;;;5075366;28;20079;-62
2022/09/28 00:39:23;;;;;;;16.88;10.05;;;;;;;;;;5075010;28;20048;-62
2022/09/28 00:41:49;;;;;;;17.08;10.63;;;;;;;;;;5074153;28;20047;-63
2022/09/28 00:44:24;;;;;;;20.25;12.07;;;;;;;;;;5074707;28;20419;-62
2022/09/28 00:47:23;;;;;;;18.80;11.38;;;8.20;99.90;;;;;;5057115;28;20047;-62
2022/09/28 00:49:49;;;;;;;20.17;10.73;;;;;;;;;;5074674;28;20036;-61
2022/09/28 00:52:18;;;;;;;23.50;11.45;;;;;;;;;;5074922;28;20040;-62
2022/09/28 00:54:46;;;;;;;24.48;11.18;;;;;;;;;;5073913;28;20040;-62
2022/09/28 00:57:13;;;;;;;20.30;11.70;;;;;;;;;;5074389;28;20044;-62
2022/09/28 00:59:39;;;;;;;19.77;12.07;;;;;;;;;;5074655;28;20082;-62
2022/09/28 01:02:05;;;;;;;19.10;11.25;;;;;;;;;;5074467;28;20044;-62
2022/09/28 01:04:31;;;;;;;23.00;13.00;;;;;;;;;;5056011;28;20094;-63
2022/09/28 01:06:58;;;;;;;23.08;11.50;;;;;;;;;;5074720;28;20040;-62
2022/09/28 01:09:25;;;;;;;21.80;11.55;;;;;;;;;;5037719;28;20365;-62
2022/09/28 01:11:51;;;;;;;16.70;11.48;;;;;;;;;;5042042;28;20089;-62
2022/09/28 01:14:18;;;;;;;20.30;12.45;;;;;;;;;;5074375;28;20033;-62
2022/09/28 01:17:00;;;;;;;20.13;11.52;;;;;;;;;;5074284;28;20069;-62
2022/09/28 01:19:30;;;;;;;22.80;12.68;;;;;;;;;;5073762;28;20052;-63
2022/09/28 01:22:11;;;;;;;25.10;12.27;;;;;;;;;;5073582;28;20041;-62
2022/09/28 01:24:47;;;;;;;21.08;12.55;;;;;;;;;;5073632;28;20036;-63
2022/09/28 01:27:19;;;;;;;18.38;10.90;;;;;;;;;;5074338;28;20102;-62
2022/09/28 01:29:45;;;;;;;18.60;11.32;;;;;;;;;;5073885;28;20548;-62
2022/09/28 01:32:19;;;;;;;18.75;12.10;;;;;;;;;;5073881;28;20043;-63
2022/09/28 01:35:05;;;;;;;22.13;11.70;;;;;;;;;;5008844;22;20106;-63
2022/09/28 01:37:36;;;;;;;20.08;11.48;;;;;;;;;;5010599;28;20069;-63
2022/09/28 01:40:04;;;;;;;22.90;11.68;;;;;;;;;;5013454;28;20049;-63
2022/09/28 01:42:32;;;;;;;19.08;11.15;;;;;;;;;;4996571;28;20042;-64
2022/09/28 01:45:03;;;;;;;19.15;10.70;;;;;;;;;;5026978;28;20126;-63
2022/09/28 01:47:32;;;;;;;20.20;11.07;;;;;;;;;;5033676;28;20048;-63
2022/09/28 01:50:00;;;;;;;16.75;10.48;;;;;;;;;;5015474;28;20409;-64
2022/09/28 01:52:33;;;;;;;18.27;11.35;;;;;;;;;;5013635;28;20046;-64
2022/09/28 01:54:59;;;;;;;15.85;10.52;;;;;;;;;;5026097;28;20040;-63
2022/09/28 01:57:33;;;;;;;14.68;10.23;;;;;;;;;;5033681;28;20037;-64
2022/09/28 02:00:02;;;;;;;16.60;10.65;;;;;;;;;;5033851;28;20128;-63
2022/09/28 02:02:31;;;;;;;21.80;10.68;;;;;;;;;;5032907;28;20041;-64
2022/09/28 02:05:01;;;;;;;15.30;10.20;;;;;;;;;;5032722;28;20053;-63
2022/09/28 02:07:59;;;;;;;25.07;13.57;;;;;;;;;;5033034;28;20041;-64
2022/09/28 02:10:29;;;;;;;21.95;12.30;;;;;;;;;;4979502;28;20053;-63
2022/09/28 02:13:00;;;;;;;21.83;11.88;;;;;;;;;;5033364;28;20077;-63
2022/09/28 02:15:29;;;;;;;16.65;10.90;;;;;;;;;;5032405;28;20132;-63
2022/09/28 02:17:56;;;;;;;21.73;12.38;;;;;;;;;;5028592;28;20133;-63
2022/09/28 02:20:23;;;;;;;21.55;11.70;;;;;;;;;;5033405;28;20049;-63
2022/09/28 02:22:51;;;;;;;18.55;11.90;;;;;;;;;;5032526;28;20045;-63
2022/09/28 02:25:30;;;;;;;21.33;11.68;;;;;;;;;;5033150;28;20120;-63
2022/09/28 02:28:00;;;;;;;17.30;11.25;;;;;;;;;;5032958;28;20465;-62
2022/09/28 02:30:27;;;;;;;19.40;11.88;;;;;;;;;;5032344;28;20489;-63
2022/09/28 02:32:55;;;;;;;22.98;12.85;;;;;;;;;;5032453;28;20478;-63
2022/09/28 02:35:22;;;;;;;19.27;12.02;;;;;;;;;;5033128;28;20076;-62
2022/09/28 02:37:49;;;;;;;15.65;10.77;;;;;;;;;;5032430;28;20050;-63
2022/09/28 02:40:16;;;;;;;14.80;9.30;;;;;;;;;;5032580;28;20100;-63
2022/09/28 02:42:46;;;;;;;12.88;8.13;;;;;;;;;;5032014;28;20052;-63
2022/09/28 02:45:15;;;;;;;12.27;7.88;;;;;;;;;;5032462;28;20050;-62
2022/09/28 02:47:50;;;;;;;13.27;8.18;;;;;;;;;;5031570;28;20437;-63
2022/09/28 02:50:16;;;;;;;14.60;9.50;;;;;;;;;;5032529;28;20033;-63
2022/09/28 02:52:50;;;;;;;14.95;9.02;;;;;;;;;;5014905;28;20044;-62
2022/09/28 02:55:36;;;;;;;16.10;9.40;;;;;;;;;;5032796;28;20049;-63
2022/09/28 02:58:10;;;;;;;18.50;9.95;;;;;;;;;;5015435;28;20398;-62
2022/09/28 03:00:40;;;;;;;13.90;9.55;;;;;;;;;;5031639;28;20049;-63
2022/09/28 03:03:08;;;;;;;14.75;9.68;;;;;;;;;;5032491;28;20564;-62
2022/09/28 03:05:37;;;;;;;17.60;10.55;;;;;;;;;;5032004;28;20083;-63
2022/09/28 03:08:09;;;;;;;14.90;9.57;;;;;;;;;;5031896;28;20042;-62
2022/09/28 03:10:46;;;;;;;18.75;11.30;;;;;;;;;;5032244;28;20053;-62
2022/09/28 03:13:13;;;;;;;30.25;14.18;;;;;;;;;;5032482;28;20057;-62
2022/09/28 03:15:40;;;;;;;22.25;12.13;;;;;;;;;;5031684;28;20040;-62
2022/09/28 03:18:06;;;;;;;22.25;13.52;;;;;;;;;;5008904;28;20421;-62
2022/09/28 03:20:33;;;;;;;49.45;15.32;;;;;;;;;;5012179;28;20429;-62
2022/09/28 03:22:59;;;;;;;73.85;16.08;;;;;;;;;;5019731;28;20041;-62
2022/09/28 03:25:25;;;;;;;50.13;15.02;;;;;;;;;;5032504;28;20187;-62
2022/09/28 03:27:51;;;;;;;26.52;14.52;;;;;;;;;;5034741;28;20049;-62
2022/09/28 03:30:18;;;;;;;21.67;14.13;;;;;;;;;;5036112;28;20041;-62
2022/09/28 03:32:44;;;;;;;19.65;13.25;;;;;;;;;;5032207;28;20041;-62
2022/09/28 03:35:10;;;;;;;41.58;16.35;;;;;;;;;;4992869;28;20060;-62
2022/09/28 03:37:36;;;;;;;33.28;14.25;;;;;;;;;;5018427;28;20060;-63
2022/09/28 03:40:02;;;;;;;25.45;12.98;;;;;;;;;;5036376;28;20045;-63
2022/09/28 03:42:28;;;;;;;21.45;13.45;;;;;;;;;;5035724;28;20056;-64
2022/09/28 03:44:55;;;;;;;18.95;13.07;;;;;;;;;;5035991;28;20041;-63
2022/09/28 03:47:21;;;;;;;34.50;14.27;;;;;;;;;;5035296;28;20053;-63
2022/09/28 03:49:47;;;;;;;40.88;14.77;;;;;;;;;;5035001;28;20088;-63
2022/09/28 03:52:14;;;;;;;19.80;13.38;;;;;;;;;;5036062;28;20511;-63
2022/09/28 03:54:40;;;;;;;27.33;14.02;;;;;;;;;;5035883;28;20402;-63
2022/09/28 03:57:06;;;;;;;19.00;13.43;;;;;;;;;;5035937;28;20041;-63
2022/09/28 03:59:36;;;;;;;19.67;13.68;;;;;;;;;;5034850;28;20057;-63
2022/09/28 04:02:02;;;;;;;21.83;13.50;;;;;;;;;;5029128;28;20052;-62
2022/09/28 04:04:28;;;;;;;19.38;13.38;;;;;;;;;;5034440;28;20116;-63
2022/09/28 04:06:54;;;;;;;38.22;13.98;;;;;;;;;;5035418;28;20041;-62
2022/09/28 04:09:20;;;;;;;18.75;13.52;;;;;;;;;;5035639;28;20393;-62
2022/09/28 04:11:46;;;;;;;26.67;14.18;;;;;;;;;;5035201;28;20045;-63
2022/09/28 04:14:12;;;;;;;15.95;12.52;;;;;;;;;;5034739;28;20438;-63
2022/09/28 04:16:38;;;;;;;23.60;15.25;;;;;;;;;;5035238;28;20140;-63
2022/09/28 04:19:04;;;;;;;26.25;15.65;;;;;;;;;;5023785;28;20566;-63
2022/09/28 04:21:31;;;;;;;39.10;15.75;;;;;;;;;;5032677;28;20054;-63
2022/09/28 04:23:58;;;;;;;40.17;16.17;;;;;;;;;;5035199;28;20060;-63
2022/09/28 04:26:25;;;;;;;26.00;14.63;;;;;;;;;;5016964;28;20413;-63
2022/09/28 04:31:39;;;;;;;26.10;15.20;;;;;;;;;;5034580;28;20053;-63
2022/09/28 04:34:05;;;;;;;18.02;13.23;;;;;;;;;;5034154;28;20140;-63
2022/09/28 04:36:31;;;;;;;23.15;15.52;;;;;;;;;;5034479;28;20133;-63
2022/09/28 04:38:58;;;;;;;20.33;13.93;;;;;;;;;;5034345;28;20057;-63
2022/09/28 04:41:25;;;;;;;24.58;15.25;;;;;;;;;;5034598;28;20133;-63
2022/09/28 04:43:51;;;;;;;23.95;14.82;;;;;;;;;;5034615;28;20045;-63
2022/09/28 04:46:17;;;;;;;22.25;14.65;;;;;;;;;;5034779;28;20042;-63
2022/09/28 04:48:43;;;;;;;21.10;14.73;;;;;;;;;;5034894;28;20080;-63
2022/09/28 04:51:09;;;;;;;25.48;14.23;;;;;;;;;;5069328;22;20110;-64
2022/09/28 04:53:54;;;;;;;27.50;15.93;;;;;;;;;;5077059;22;20519;-64
2022/09/28 04:56:34;;;;;;;25.38;15.05;;;;;;;;;;4954830;22;21098;-64
2022/09/28 04:59:00;;;;;;;24.88;15.88;;;;;;;;;;4992098;28;20054;-63
2022/09/28 05:01:26;;;;;;;28.13;16.48;;;;;;;;;;4992436;28;20509;-63
2022/09/28 05:03:52;;;;;;;29.48;17.63;;;;;;;;;;4991368;28;20054;-63
2022/09/28 05:06:18;;;;;;;25.17;16.77;;;;;;;;;;4961537;28;20099;-63
2022/09/28 05:13:51;;;;;;;31.63;17.35;;;;;;;;;;5070497;22;20126;-62
2022/09/28 05:16:17;;;;;;;27.85;17.05;;;;;;;;;;5052380;28;20497;-62
2022/09/28 05:18:43;;;;;;;25.42;16.63;;;;;;;;;;5035926;28;20053;-63
2022/09/28 05:21:10;;;;;;;27.88;17.27;;;;;;;;;;5054219;28;20393;-62
2022/09/28 05:23:36;;;;;;;29.20;17.20;;;;;;;;;;5049555;28;20049;-63
2022/09/28 05:26:02;;;;;;;28.27;17.55;;;;;;;;;;5053245;28;20049;-63
2022/09/28 05:28:29;;;;;;;30.20;17.70;;;;;;;;;;5052574;28;20048;-64
2022/09/28 05:31:02;;;;;;;28.13;16.55;;;;;;;;;;5053338;28;20041;-62
2022/09/28 05:33:29;;;;;;;32.35;18.13;;;;;;;;;;5051635;28;20076;-63
2022/09/28 05:35:55;;;;;;;31.35;18.73;;;;;;;;;;5052668;28;20124;-63
2022/09/28 05:38:21;;;;;;;27.38;16.45;;;;;;;;;;5052844;28;20123;-63
2022/09/28 05:40:47;;;;;;;25.65;15.45;;;;;;;;;;5052725;28;20116;-62
2022/09/28 05:43:13;;;;;;;29.05;16.73;;;;;;;;;;5052537;28;20130;-63
2022/09/28 05:45:39;;;;;;;32.28;17.98;;;;;;;;;;5052271;28;20616;-63
2022/09/28 05:48:05;;;;;;;27.60;16.73;;;;;;;;;;5053449;28;20123;-63
2022/09/28 05:50:31;;;;;;;28.38;15.85;;;;;;;;;;5049099;28;20119;-63
2022/09/28 05:53:00;;;;;;;29.75;17.02;;;;;;;;;;5053362;28;20124;-63
2022/09/28 05:55:26;;;;;;;27.40;16.27;;;;;;;;;;5034231;28;20079;-63
2022/09/28 05:57:52;;;;;;;26.33;16.88;;;;;;;;;;5052818;28;20053;-63
2022/09/28 06:00:18;;;;;;;27.73;15.57;;;;;;;;;;5049744;28;20106;-63
2022/09/28 06:02:44;;;;;;;32.80;18.52;;;;;;;;;;5052461;28;20041;-63
2022/09/28 06:05:10;;;;;;;31.70;17.55;;;;;;;;;;5052669;28;20044;-63
2022/09/28 06:07:36;;;;;;;33.22;17.70;;;;;;;;;;5048775;28;20037;-62
2022/09/28 06:10:03;;;;;;;35.08;18.92;;;;;;;;;;5052623;28;20433;-62
2022/09/28 06:12:29;;;;;;;35.70;18.70;;;;;;;;;;5032446;28;20046;-63
2022/09/28 06:14:58;;;;;;;33.75;18.13;;;;;;;;;;5048613;28;20118;-62
2022/09/28 06:17:24;;;;;;;32.25;17.15;;;;;;;;;;5051768;28;20088;-62
2022/09/28 06:19:51;;;;;;;42.15;19.45;;;;;;;;;;5052407;28;20524;-62
2022/09/28 06:22:17;;;;;;;35.85;19.52;;;;;;;;;;5051708;28;20432;-63
2022/09/28 06:24:43;;;;;;;33.60;17.90;;;;;;;;;;5051840;28;20044;-63
2022/09/28 06:27:09;;;;;;;57.72;21.05;;;;;;;;;;5052373;28;20041;-63
2022/09/28 06:29:35;;;;;;;134.90;23.02;;;;;;;;;;5048233;28;20444;-63
2022/09/28 06:32:01;;;;;;;136.25;23.95;;;;;;;;;;5052997;28;20040;-63
2022/09/28 06:34:28;;;;;;;76.95;21.48;;;;;;;;;;5052523;28;20048;-63
2022/09/28 06:36:54;;;;;;;170.98;24.77;;;;;;;;;;5053158;28;20455;-63
2022/09/28 06:39:20;;;;;;;123.78;21.52;;;;;;;;;;5051013;28;20098;-63
2022/09/28 06:41:46;;;;;;;309.30;28.85;;;;;;;;;;5052059;28;20056;-63
2022/09/28 06:44:12;;;;;;;387.52;31.80;;;;;;;;;;5052165;28;20382;-63
2022/09/28 06:46:39;;;;;;;62.75;19.02;;;;;;;;;;5052566;28;20045;-63
2022/09/28 06:49:08;;;;;;;53.22;21.23;;;;;;;;;;5052070;28;20490;-62
2022/09/28 06:51:34;;;;;;;161.82;22.77;;;;;;;;;;5036708;28;20047;-63
2022/09/28 06:54:00;;;;;;;260.15;26.52;;;;;;;;;;5051986;28;20179;-63
2022/09/28 06:56:26;;;;;;;252.38;24.98;;;;;;;;;;5052391;28;20136;-63
2022/09/28 06:58:53;;;;;;;35.75;18.30;;;;;;;;;;5052045;28;20049;-63
2022/09/28 07:01:19;;;;;;;130.70;21.98;;;;;;;;;;5034461;28;20049;-63
2022/09/28 07:03:45;;;;;;;202.77;25.30;;;;;;;;;;5052286;28;20048;-63
2022/09/28 07:06:11;;;;;;;55.10;19.85;;;;;;;;;;5034650;28;20041;-63
2022/09/28 07:08:38;;;;;;;95.93;22.55;;;;;;;;;;5050528;28;20451;-63
2022/09/28 07:11:05;;;;;;;70.53;20.80;;;;;;;;;;5049964;28;20041;-63
2022/09/28 07:13:31;;;;;;;40.95;18.10;;;;;;;;;;5033750;28;20051;-63
2022/09/28 07:16:00;;;;;;;34.60;18.20;;;;;;;;;;5048813;28;20068;-64
2022/09/28 07:18:28;;;;;;;36.17;19.23;;;;;;;;;;5040854;28;20517;-63
2022/09/28 07:20:58;;;;;;;33.63;19.77;;;;;;;;;;5031627;28;20140;-63
2022/09/28 07:23:26;;;;;;;34.97;19.58;;;;;;;;;;5052133;28;20060;-63
2022/09/28 07:25:52;;;;;;;38.70;19.55;;;;;;;;;;5047862;28;20099;-63
2022/09/28 07:28:19;;;;;;;30.33;19.50;;;;;;;;;;5051390;28;20048;-63
2022/09/28 07:30:46;;;;;;;29.58;17.23;;;;;;;;;;5051080;28;20559;-63
2022/09/28 07:33:13;;;;;;;30.60;18.90;;;;;;;;;;5051471;28;20045;-62
2022/09/28 07:35:41;;;;;;;29.98;18.63;;;;;;;;;;5049358;28;20067;-62
2022/09/28 07:38:07;;;;;;;32.95;16.90;;;;;;;;;;5051547;28;20046;-62
2022/09/28 07:43:20;;;;;;;23.13;14.27;;;;;;;;;;5031839;28;20061;-62
2022/09/28 07:45:46;;;;;;;18.65;13.38;;;;;;;;;;5044728;28;20098;-62
2022/09/28 07:48:16;;;;;;;21.55;13.20;;;;;;;;;;5033974;28;20497;-62
2022/09/28 07:50:52;;;;;;;18.70;13.23;;;;;;;;;;5048918;28;20048;-62
2022/09/28 07:53:19;;;;;;;18.52;11.57;;;;;;;;;;5049286;28;20036;-62
2022/09/28 07:56:08;;;;;;;20.95;11.80;;;;;;;;;;5047916;28;20044;-62
2022/09/28 07:58:35;;;;;;;14.52;10.75;;;;;;;;;;5042993;28;20525;-62
2022/09/28 08:01:13;;;;;;;16.90;11.35;;;;;;;;;;5050916;28;20033;-62
2022/09/28 08:03:43;;;;;;;17.10;10.50;;;;;;;;;;5041114;28;20049;-62
2022/09/28 08:06:11;;;;;;;14.95;9.57;;;;;;;;;;5029160;28;20044;-62
2022/09/28 08:08:42;;;;;;;12.85;8.10;;;;;;;;;;5050469;28;20041;-62
2022/09/28 08:11:09;;;;;;;9.43;7.13;;;;;;;;;;5018275;28;20049;-62
2022/09/28 08:13:36;;;;;;;9.80;7.05;;;;;;;;;;5045625;28;20076;-62
2022/09/28 08:16:03;;;;;;;12.93;6.65;;;;;;;;;;5052891;28;20126;-62
2022/09/28 08:18:29;;;;;;;9.70;5.95;;;;;;;;;;5035386;28;20049;-62
2022/09/28 08:23:41;;;;;;;6.65;4.35;;;;;;;;;;5052760;28;20045;-62
2022/09/28 08:26:07;;;;;;;7.57;4.53;;;;;;;;;;5052211;28;20390;-62
2022/09/28 08:28:36;;;;;;;8.02;4.65;;;;;;;;;;5045816;28;20098;-62
2022/09/28 08:31:02;;;;;;;6.20;4.25;;;;;;;;;;5053361;28;20504;-62
2022/09/28 08:33:28;;;;;;;5.72;4.20;;;;;;;;;;5054031;28;20124;-62
2022/09/28 08:35:56;;;;;;;5.75;3.60;;;;;;;;;;5054324;28;20036;-61
2022/09/28 08:38:23;;;;;;;6.88;3.20;;;;;;;;;;5053865;28;20053;-62
2022/09/28 08:41:05;;;;;;;8.40;3.38;;;;;;;;;;5052886;28;20049;-62
2022/09/28 08:44:10;;;;;;;6.40;3.35;;;13.10;99.90;;;;;;5048566;28;20089;-63
2022/09/28 08:46:41;;;;;;;5.63;3.22;;;;;;;;;;5046985;28;20091;-62
2022/09/28 08:49:15;;;;;;;4.35;2.50;;;;;;;;;;5052948;28;20052;-62
2022/09/28 08:51:51;;;;;;;6.53;2.75;;;;;;;;;;5050563;28;20107;-63
2022/09/28 08:54:17;;;;;;;5.43;2.60;;;;;;;;;;5051086;28;20048;-62
2022/09/28 08:56:51;;;;;;;5.22;2.53;;;;;;;;;;5051515;28;20049;-62
2022/09/28 08:59:22;;;;;;;5.63;2.85;;;;;;;;;;5127333;22;20143;-62
2022/09/28 09:01:51;;;;;;;5.38;3.05;;;;;;;;;;5073331;22;20068;-62
2022/09/28 09:04:18;;;;;;;5.35;2.70;;;;;;;;;;5081404;22;20076;-59
2022/09/28 09:06:56;;;;;;;5.40;2.65;;;;;;;;;;5053858;28;20053;-61
2022/09/28 09:09:32;;;;;;;5.57;2.60;;;;;;;;;;5053428;28;20085;-59
2022/09/28 09:11:58;;;;;;;4.10;1.80;;;;;;;;;;5054476;28;20080;-58
2022/09/28 09:14:33;;;;;;;4.15;2.20;;;;;;;;;;5054096;28;20052;-59
2022/09/28 09:17:09;;;;;;;4.38;1.75;;;;;;;;;;5053580;28;20095;-59
2022/09/28 09:19:45;;;;;;;6.78;2.03;;;;;;;;;;5053776;28;20080;-61
2022/09/28 09:22:24;;;;;;;6.45;2.03;;;;;;;;;;5035492;28;20049;-59
2022/09/28 09:24:54;;;;;;;6.47;1.80;;;;;;;;;;5038397;28;20045;-59
2022/09/28 09:27:20;;;;;;;4.47;1.90;;;;;;;;;;5047146;28;20254;-60
2022/09/28 09:30:05;;;;;;;7.72;1.90;;;14.80;99.90;;;;;;5053433;28;20475;-63
2022/09/28 09:32:52;;;;;;;2.10;1.10;;;;;;;;;;5053433;28;20509;-61
2022/09/28 09:35:36;;;;;;;4.63;1.17;;;;;;;;;;5052737;28;20041;-62
2022/09/28 09:38:09;;;;;;;2.00;0.60;;;;;;;;;;5051890;28;20041;-61
2022/09/28 09:40:45;;;;;;;4.00;1.27;;;;;;;;;;5053488;28;20049;-62
2022/09/28 09:43:16;;;;;;;2.38;0.80;;;;;;;;;;5053638;28;20398;-61
2022/09/28 09:45:42;;;;;;;3.13;0.88;;;;;;;;;;5053218;28;20080;-62
2022/09/28 09:48:21;;;;;;;2.70;0.77;;;;;;;;;;5052278;28;20057;-60
2022/09/28 09:50:50;;;;;;;4.32;0.63;;;;;;;;;;5031762;28;20049;-61
2022/09/28 09:53:22;;;;;;;4.07;0.82;;;;;;;;;;5050730;28;20481;-60
2022/09/28 09:55:53;;;;;;;2.45;0.95;;;;;;;;;;5050899;28;20041;-62
2022/09/28 09:58:35;;;;;;;1.50;0.40;;;;;;;;;;5048633;28;20062;-60
2022/09/28 10:01:08;;;;;;;7.18;1.40;;;;;;;;;;5030494;28;20468;-63
2022/09/28 10:03:36;;;;;;;1.52;0.52;;;;;;;;;;5047683;28;20049;-63
2022/09/28 10:06:11;;;;;;;1.98;1.25;;;;;;;;;;5051524;28;20063;-63
2022/09/28 10:08:49;;;;;;;1.65;0.57;;;;;;;;;;5045863;28;20044;-61
2022/09/28 10:11:21;;;;;;;4.07;0.50;;;;;;;;;;5052303;28;20045;-65
2022/09/28 10:13:48;;;;;;;1.50;0.50;;;;;;;;;;5035274;28;20103;-61
2022/09/28 10:16:16;;;;;;;1.42;0.47;;;15.50;99.90;;;;;;5049927;28;20044;-64
2022/09/28 10:18:42;;;;;;;0.30;0.20;;;;;;;;;;5044930;28;20057;-64
2022/09/28 10:21:16;;;;;;;2.30;0.40;;;;;;;;;;5034485;28;20543;-65
2022/09/28 10:23:43;;;;;;;3.45;0.98;;;;;;;;;;5049524;28;20060;-65
2022/09/28 10:26:21;;;;;;;1.13;0.22;;;16.00;99.90;;;;;;5049265;28;20076;-62
2022/09/28 10:29:02;;;;;;;1.50;0.20;;;16.50;99.90;;;;;;5046538;28;20152;-61
2022/09/28 10:31:39;;;;;;;2.97;0.40;;;;;;;;;;5048073;28;20111;-61
2022/09/28 10:34:06;;;;;;;2.55;0.32;;;;;;;;;;5042928;28;20033;-61
2022/09/28 10:36:37;;;;;;;1.67;0.30;;;;;;;;;;5046037;28;20041;-63
2022/09/28 10:39:04;;;;;;;2.08;0.57;;;;;;;;;;5050352;28;20081;-65
2022/09/28 10:41:31;;;;;;;0.68;0.30;;;;;;;;;;5048851;28;20041;-70
2022/09/28 10:44:07;;;;;;;2.78;0.57;;;;;;;;;;5051694;28;20106;-65
2022/09/28 10:46:34;;;;;;;2.35;0.30;;;;;;;;;;5047725;28;20041;-63
2022/09/28 10:49:02;;;;;;;3.38;0.80;;;;;;;;;;5033226;28;20552;-68
2022/09/28 10:51:48;;;;;;;1.92;0.40;;;;;;;;;;5036753;28;20394;-66
2022/09/28 10:54:18;;;;;;;4.45;1.13;;;;;;;;;;5050034;28;20041;-68
2022/09/28 10:56:45;;;;;;;2.17;0.40;;;;;;;;;;5034206;28;20087;-68
2022/09/28 10:59:26;;;;;;;1.38;0.30;;;;;;;;;;5050737;28;20091;-68
2022/09/28 11:01:57;;;;;;;1.65;0.40;;;;;;;;;;5033929;28;20385;-72
2022/09/28 11:04:26;;;;;;;2.53;0.57;;;;;;;;;;5043354;28;20115;-70
2022/09/28 11:06:55;;;;;;;1.08;0.20;;;;;;;;;;5030318;28;20052;-67
2022/09/28 11:09:36;;;;;;;2.42;0.50;;;;;;;;;;5049254;28;20493;-66
2022/09/28 11:12:06;;;;;;;0.55;0.20;;;;;;;;;;5032878;28;20133;-67
2022/09/28 11:14:36;;;;;;;2.15;0.93;;;;;;;;;;5046020;28;20106;-67
2022/09/28 11:17:27;;;;;;;1.00;0.40;;;15.30;99.90;;;;;;5026370;28;20478;-64
2022/09/28 11:19:57;;;;;;;1.15;0.30;;;;;;;;;;5051410;28;20044;-66
2022/09/28 11:22:24;;;;;;;1.15;0.30;;;;;;;;;;5051862;28;20493;-63
2022/09/28 11:24:51;;;;;;;0.88;0.35;;;;;;;;;;5051136;28;20060;-65
2022/09/28 11:27:19;;;;;;;2.15;0.47;;;;;;;;;;5050927;28;20155;-65
2022/09/28 11:29:51;;;;;;;6.05;1.10;;;;;;;;;;5049418;28;20049;-65
2022/09/28 11:32:17;;;;;;;3.15;0.52;;;;;;;;;;5016862;28;20045;-64
2022/09/28 11:34:44;;;;;;;4.35;0.85;;;;;;;;;;5050888;28;20049;-65
2022/09/28 11:37:13;;;;;;;4.80;0.90;;;;;;;;;;5049556;28;20048;-66
2022/09/28 11:39:54;;;;;;;10.55;1.52;;;;;;;;;;5050833;28;20080;-68
2022/09/28 11:42:28;;;;;;;;;;;13.80;99.90;;;;;;5052615;28;20067;-67
2022/09/28 11:45:01;;;;;;;1.92;0.43;;;;;;;;;;5051141;28;19927;-67
2022/09/28 11:47:27;;;;;;;0.50;0.28;;;;;;;;;;5029373;28;20052;-68
2022/09/28 11:49:57;;;;;;;0.65;0.30;;;;;;;;;;5053229;28;20072;-67
2022/09/28 11:52:28;;;;;;;1.17;0.40;;;;;;;;;;5048662;28;20144;-67
2022/09/28 11:54:57;;;;;;;1.20;0.30;;;;;;;;;;5037838;28;20136;-68
2022/09/28 11:57:32;;;;;;;2.95;0.32;;;;;;;;;;5053495;28;20040;-70
2022/09/28 12:00:00;;;;;;;1.08;0.40;;;;;;;;;;5055257;28;20055;-74
2022/09/28 12:02:51;;;;;;;2.63;0.50;;;16.40;99.90;;;;;;5052753;28;20074;-71
2022/09/28 12:05:32;;;;;;;0.77;0.25;;;;;;;;;;5047185;28;20144;-74
2022/09/28 12:08:01;;;;;;;0.68;0.20;;;;;;;;;;5053586;28;20119;-71
2022/09/28 12:10:47;;;;;;;0.88;0.20;;;;;;;;;;5051877;28;20041;-68
2022/09/28 12:13:21;;;;;;;0.85;0.38;;;;;;;;;;5045608;28;20393;-72
2022/09/28 12:16:19;;;;;;;1.23;0.40;;;16.80;99.90;;;;;;5045348;28;20048;-70
2022/09/28 12:19:07;;;;;;;1.17;0.50;;;;;;;;;;5035233;28;20041;-70
2022/09/28 12:21:39;;;;;;;1.48;0.70;;;;;;;;;;5036664;28;20052;-68
2022/09/28 12:24:16;;;;;;;2.88;0.77;;;;;;;;;;5054189;28;20587;-69
2022/09/28 12:26:57;;;;;;;1.27;0.57;;;;;;;;;;5053224;28;20485;-67
2022/09/28 12:29:29;;;;;;;4.32;0.40;;;;;;;;;;5032819;28;20478;-70
2022/09/28 12:31:57;;;;;;;2.38;0.50;;;;;;;;;;5051041;28;20048;-67
2022/09/28 12:34:23;;;;;;;0.65;0.20;;;;;;;;;;5054734;28;20041;-67
2022/09/28 12:36:50;;;;;;;3.45;0.52;;;;;;;;;;5053340;28;20048;-71
2022/09/28 12:39:33;;;;;;;0.55;0.20;;;;;;;;;;5097282;22;20127;-74
2022/09/28 12:42:03;;;;;;;2.08;0.28;;;;;;;;;;5031314;23;20058;-71
2022/09/28 12:44:31;;;;;;;0.98;0.30;;;;;;;;;;5015770;28;20045;-71
2022/09/28 12:47:35;;;;;;;0.70;0.30;;;16.50;99.90;;;;;;5000553;28;20041;-69
2022/09/28 12:50:18;;;;;;;0.32;0.22;;;;;;;;;;5019075;28;20462;-75
2022/09/28 12:53:09;;;;;;;1.92;0.60;;;16.70;99.90;;;;;;5022132;28;20111;-70
2022/09/28 12:55:35;;;;;;;1.80;0.40;;;;;;;;;;5033050;28;20053;-73
2022/09/28 13:00:54;;;;;;;0.43;0.25;;;;;;;;;;5056867;23;20056;-71
2022/09/28 13:03:20;;;;;;;1.63;0.50;;;;;;;;;;5035727;28;20080;-72
2022/09/28 13:05:55;;;;;;;1.40;0.35;;;;;;;;;;5057926;28;20940;-74
2022/09/28 13:08:30;;;;;;;2.65;0.40;;;;;;;;;;5045809;28;20049;-67
2022/09/28 13:11:06;;;;;;;1.02;0.57;;;;;;;;;;5051100;28;20049;-73
2022/09/28 13:13:50;;;;;;;3.08;0.50;;;;;;;;;;5039447;28;20056;-73
2022/09/28 13:16:16;;;;;;;1.63;0.30;;;;;;;;;;5026545;28;20083;-75
2022/09/28 13:19:07;;;;;;;1.98;0.30;;;;;;;;;;5040974;28;20125;-74
2022/09/28 13:21:41;;;;;;;1.70;0.30;;;;;;;;;;5037306;28;20076;-73
2022/09/28 13:24:10;;;;;;;2.17;0.40;;;;;;;;;;5033270;28;20045;-70
2022/09/28 13:26:39;;;;;;;1.02;0.25;;;;;;;;;;5052674;28;20071;-69
2022/09/28 13:29:18;;;;;;;0.70;0.35;;;;;;;;;;5034762;28;20075;-72
2022/09/28 13:31:53;;;;;;;1.48;0.57;;;;;;;;;;5033497;28;20124;-72
2022/09/28 13:34:21;;;;;;;3.22;0.52;;;;;;;;;;5051653;28;20044;-76
2022/09/28 13:37:06;;;;;;;0.98;0.40;;;;;;;;;;5034275;28;20049;-75
2022/09/28 13:39:36;;;;;;;0.73;0.30;;;;;;;;;;5033398;28;20045;-74
2022/09/28 13:42:02;;;;;;;0.88;0.40;;;;;;;;;;5050610;28;20123;-72
2022/09/28 13:44:31;;;;;;;0.93;0.30;;;;;;;;;;5047594;28;20049;-66
2022/09/28 13:47:02;;;;;;;1.15;0.50;;;;;;;;;;5050613;28;20080;-66
2022/09/28 13:49:47;;;;;;;2.08;0.80;;;;;;;;;;5030510;28;20053;-65
2022/09/28 13:52:22;;;;;;;5.75;1.30;;;;;;;;;;5032596;28;20045;-65
2022/09/28 13:55:10;;;;;;;3.65;0.90;;;13.80;99.90;;;;;;5051681;28;20052;-65
2022/09/28 13:57:42;;;;;;;4.13;1.15;;;;;;;;;;5030176;28;20044;-65
2022/09/28 14:00:18;;;;;;;1.50;0.80;;;;;;;;;;5022440;28;20146;-65
2022/09/28 14:02:51;;;;;;;2.60;0.60;;;;;;;;;;5014291;28;20510;-65
2022/09/28 14:05:26;;;;;;;0.98;0.60;;;;;;;;;;5009411;28;20067;-64
2022/09/28 14:08:22;;;;;;;1.95;0.60;;;;;;;;;;5029611;28;20068;-65
2022/09/28 14:10:50;;;;;;;2.78;0.40;;;;;;;;;;4997220;28;20093;-64
2022/09/28 14:13:41;;;;;;;1.88;0.90;;;16.10;99.90;;;;;;5009223;28;20052;-65
2022/09/28 14:16:19;;;;;;;2.95;0.98;;;;;;;;;;5015196;28;20509;-65
2022/09/28 14:18:50;;;;;;;4.03;0.93;;;;;;;;;;5030770;28;20781;-66
2022/09/28 14:21:16;;;;;;;0.43;0.35;;;;;;;;;;5012961;28;20057;-65
2022/09/28 14:24:01;;;;;;;0.40;0.20;;;;;;;;;;5031948;28;20478;-65
2022/09/28 14:26:38;;;;;;;1.45;0.30;;;;;;;;;;5030946;28;20049;-66
2022/09/28 14:29:10;;;;;;;1.15;0.40;;;;;;;;;;5014917;28;20052;-64
2022/09/28 14:31:41;;;;;;;0.75;0.22;;;;;;;;;;4989620;28;20657;-65
2022/09/28 14:34:22;;;;;;;0.25;0.20;;;;;;;;;;5015352;28;20053;-65
2022/09/28 14:42:21;;;;;;;0.40;0.28;;;;;;;;;;5003649;28;20045;-64
2022/09/28 14:45:02;;;;;;;0.88;0.28;;;;;;;;;;5032115;28;20091;-65
2022/09/28 14:47:35;;;;;;;0.10;0.10;;;;;;;;;;5012334;28;20049;-66
2022/09/28 14:50:16;;;;;;;2.72;0.40;;;;;;;;;;5013738;28;20181;-65
2022/09/28 14:52:47;;;;;;;1.73;0.20;;;;;;;;;;5013658;28;20053;-65
2022/09/28 14:55:14;;;;;;;2.78;0.30;;;;;;;;;;4998225;28;20076;-64
2022/09/28 14:57:41;;;;;;;2.13;0.30;;;;;;;;;;4999807;28;20050;-65
2022/09/28 15:00:08;;;;;;;0.20;0.20;;;;;;;;;;5013594;28;20405;-65
2022/09/28 15:02:37;;;;;;;2.10;0.45;;;;;;;;;;5032403;28;20548;-65
2022/09/28 15:05:06;;;;;;;0.90;0.35;;;;;;;;;;5034531;28;20045;-64
2022/09/28 15:07:46;;;;;;;5.47;0.90;;;;;;;;;;5022032;28;20490;-65